Time;durP1;ratioP1;P1;durP2;ratioP2;P2;SDS_P1;SDS_P2;PMS_P1;PMS_P2;Temp;Humidity;BMP_temperature;BMP_pressure;BME280_temperature;BME280_humidity;BME280_pressure;Samples;Min_cycle;Max_cycle;Signal;HPM_P1;HPM_P2
2021/11/26 00:01:45;;;;;;;40.45;31.00;;;1.50;99.90;;;;;;5029115;28;20024;-76
2021/11/26 00:04:10;;;;;;;39.58;30.75;;;1.40;99.90;;;;;;5024020;28;20025;-76
2021/11/26 00:06:36;;;;;;;41.95;31.40;;;1.40;99.90;;;;;;5047327;28;20025;-74
2021/11/26 00:09:01;;;;;;;44.63;32.50;;;1.40;99.90;;;;;;5039402;28;20016;-74
2021/11/26 00:11:27;;;;;;;44.75;32.17;;;1.20;99.90;;;;;;5041437;28;20423;-75
2021/11/26 00:14:11;;;;;;;49.33;34.63;;;1.20;99.90;;;;;;5018371;28;20025;-74
2021/11/26 00:16:41;;;;;;;41.05;31.50;;;1.10;99.90;;;;;;5029166;28;20023;-75
2021/11/26 00:19:07;;;;;;;40.10;31.55;;;1.00;99.90;;;;;;5018807;28;20111;-76
2021/11/26 00:21:35;;;;;;;41.40;31.70;;;1.00;99.90;;;;;;5038423;28;20032;-76
2021/11/26 00:24:03;;;;;;;39.30;31.38;;;1.00;99.90;;;;;;5042308;28;20025;-76
2021/11/26 00:26:28;;;;;;;43.60;32.80;;;1.00;99.90;;;;;;5036512;28;20028;-76
2021/11/26 00:28:54;;;;;;;42.72;31.45;;;1.00;99.90;;;;;;5021521;28;20048;-76
2021/11/26 00:31:20;;;;;;;38.55;30.17;;;1.10;99.90;;;;;;5017737;28;20021;-76
2021/11/26 00:33:45;;;;;;;44.00;32.05;;;1.10;99.90;;;;;;5036830;28;20022;-76
2021/11/26 00:36:11;;;;;;;40.83;31.40;;;1.10;99.90;;;;;;5045744;28;20133;-76
2021/11/26 00:38:37;;;;;;;43.40;31.65;;;1.20;99.90;;;;;;5038972;28;20083;-76
2021/11/26 00:41:03;;;;;;;46.25;34.65;;;1.20;99.90;;;;;;5027110;28;20116;-76
2021/11/26 00:43:30;;;;;;;45.47;33.38;;;1.40;99.90;;;;;;5044894;28;20096;-76
2021/11/26 00:45:56;;;;;;;46.28;33.85;;;1.40;99.90;;;;;;5021688;28;20048;-76
2021/11/26 00:48:22;;;;;;;48.47;35.47;;;1.40;99.90;;;;;;5041919;28;20394;-76
2021/11/26 00:50:48;;;;;;;46.30;35.15;;;1.30;99.90;;;;;;5036514;28;20313;-75
2021/11/26 00:53:13;;;;;;;48.08;35.17;;;1.40;99.90;;;;;;5037452;28;20425;-75
2021/11/26 00:55:39;;;;;;;42.30;32.00;;;1.50;99.90;;;;;;5036657;28;20029;-76
2021/11/26 00:58:05;;;;;;;43.85;31.58;;;1.50;99.90;;;;;;5035059;28;20021;-76
2021/11/26 01:00:31;;;;;;;41.50;32.75;;;1.40;99.90;;;;;;5036519;28;20044;-76
2021/11/26 01:02:58;;;;;;;38.83;30.20;;;1.40;99.90;;;;;;5039271;28;20021;-75
2021/11/26 01:05:24;;;;;;;39.17;30.38;;;1.40;99.90;;;;;;5017492;28;20099;-75
2021/11/26 01:07:50;;;;;;;39.25;30.77;;;1.50;99.90;;;;;;5035991;28;20160;-76
2021/11/26 01:10:19;;;;;;;39.00;30.90;;;1.50;99.90;;;;;;5026082;28;20056;-75
2021/11/26 01:12:45;;;;;;;38.58;30.67;;;1.50;99.90;;;;;;5033570;28;20052;-75
2021/11/26 01:15:13;;;;;;;40.33;31.48;;;1.50;99.90;;;;;;5043957;28;20032;-75
2021/11/26 01:17:41;;;;;;;41.50;31.75;;;1.50;99.90;;;;;;5031222;28;20025;-75
2021/11/26 01:20:09;;;;;;;40.28;30.25;;;1.40;99.90;;;;;;5030435;28;20430;-75
2021/11/26 01:22:35;;;;;;;39.00;30.13;;;1.40;99.90;;;;;;5035736;28;20029;-75
2021/11/26 01:25:00;;;;;;;44.80;33.20;;;1.50;99.90;;;;;;5043298;28;20021;-76
2021/11/26 01:27:26;;;;;;;41.38;31.90;;;1.50;99.90;;;;;;5024543;28;20626;-76
2021/11/26 01:29:52;;;;;;;43.75;32.05;;;1.40;99.90;;;;;;5029289;28;20036;-76
2021/11/26 01:32:17;;;;;;;43.33;32.42;;;1.40;99.90;;;;;;5026448;28;20066;-75
2021/11/26 01:34:43;;;;;;;45.22;34.10;;;1.40;99.90;;;;;;5029774;28;20152;-76
2021/11/26 01:37:08;;;;;;;44.78;32.55;;;1.40;99.90;;;;;;5045164;28;20016;-76
2021/11/26 01:39:34;;;;;;;46.53;34.30;;;1.40;99.90;;;;;;5008844;28;20403;-76
2021/11/26 01:41:59;;;;;;;45.20;33.40;;;1.20;99.90;;;;;;5016369;28;20025;-76
2021/11/26 01:44:25;;;;;;;45.42;34.25;;;1.10;99.90;;;;;;5026616;28;20029;-76
2021/11/26 01:46:51;;;;;;;47.45;34.67;;;1.00;99.90;;;;;;5018078;28;20033;-76
2021/11/26 01:49:16;;;;;;;47.22;34.13;;;1.00;99.90;;;;;;5024875;28;20481;-76
2021/11/26 01:51:42;;;;;;;47.88;33.55;;;1.10;99.90;;;;;;5014430;28;20052;-76
2021/11/26 01:54:09;;;;;;;50.50;36.63;;;1.10;99.90;;;;;;5043123;28;20021;-76
2021/11/26 01:56:35;;;;;;;48.58;36.58;;;1.10;99.90;;;;;;5029792;28;20036;-76
2021/11/26 01:59:01;;;;;;;47.65;36.78;;;1.10;99.90;;;;;;5039708;28;20021;-77
2021/11/26 02:01:27;;;;;;;50.25;36.53;;;1.10;99.90;;;;;;5012115;28;20503;-77
2021/11/26 02:03:52;;;;;;;50.83;36.63;;;1.10;99.90;;;;;;4994323;28;20076;-77
2021/11/26 02:06:18;;;;;;;54.75;39.03;;;1.10;99.90;;;;;;4994163;28;20538;-77
2021/11/26 02:08:44;;;;;;;55.20;38.60;;;1.00;99.90;;;;;;4994083;28;20106;-76
2021/11/26 02:11:10;;;;;;;54.55;37.80;;;1.00;99.90;;;;;;4994176;28;20477;-75
2021/11/26 02:13:36;;;;;;;53.95;38.30;;;1.10;99.90;;;;;;5015640;28;20026;-75
2021/11/26 02:16:04;;;;;;;52.30;37.45;;;1.20;99.90;;;;;;5006925;28;20023;-75
2021/11/26 02:18:30;;;;;;;53.03;37.13;;;1.30;99.90;;;;;;5034760;28;20026;-75
2021/11/26 02:20:56;;;;;;;55.78;37.80;;;1.20;99.90;;;;;;5024757;28;20021;-75
2021/11/26 02:23:22;;;;;;;52.60;37.75;;;1.30;99.90;;;;;;5034478;28;20159;-75
2021/11/26 02:25:47;;;;;;;56.13;39.17;;;1.20;99.90;;;;;;5000414;28;20124;-76
2021/11/26 02:28:15;;;;;;;64.25;42.20;;;1.20;99.90;;;;;;5031741;28;20032;-75
2021/11/26 02:30:42;;;;;;;57.28;39.50;;;1.20;99.90;;;;;;5028804;28;20018;-75
2021/11/26 02:33:12;;;;;;;57.03;39.28;;;1.20;99.90;;;;;;5000438;28;20053;-76
2021/11/26 02:35:38;;;;;;;61.17;40.83;;;1.20;99.90;;;;;;5037408;28;20079;-76
2021/11/26 02:38:08;;;;;;;62.30;41.13;;;1.30;99.90;;;;;;5006793;28;20476;-78
2021/11/26 02:40:35;;;;;;;53.20;38.30;;;1.30;99.90;;;;;;5028670;28;20509;-76
2021/11/26 02:43:01;;;;;;;56.35;38.50;;;1.30;99.90;;;;;;5031292;28;20025;-76
2021/11/26 02:45:28;;;;;;;54.65;37.78;;;1.30;99.90;;;;;;5036982;28;20100;-75
2021/11/26 02:47:55;;;;;;;63.92;41.03;;;1.30;99.90;;;;;;5036522;28;20045;-75
2021/11/26 02:50:23;;;;;;;67.40;43.15;;;1.20;99.90;;;;;;5040245;28;20032;-75
2021/11/26 02:52:48;;;;;;;59.47;40.47;;;1.10;99.90;;;;;;5019780;28;20030;-75
2021/11/26 02:55:20;;;;;;;71.00;44.22;;;1.10;99.90;;;;;;5017831;28;20079;-76
2021/11/26 02:57:46;;;;;;;59.78;41.85;;;1.10;99.90;;;;;;5000733;28;20368;-76
2021/11/26 03:00:15;;;;;;;64.15;43.38;;;1.20;99.90;;;;;;5000279;28;20026;-77
2021/11/26 03:02:41;;;;;;;65.30;43.05;;;1.20;99.90;;;;;;5000165;28;20030;-76
2021/11/26 03:05:07;;;;;;;59.03;39.67;;;1.20;99.90;;;;;;5017571;28;20030;-76
2021/11/26 03:07:32;;;;;;;65.78;42.70;;;1.20;99.90;;;;;;5000154;28;20057;-76
2021/11/26 03:09:58;;;;;;;68.43;43.00;;;1.20;99.90;;;;;;5000177;28;20025;-76
2021/11/26 03:12:24;;;;;;;78.00;48.13;;;1.10;99.90;;;;;;5018347;28;20029;-74
2021/11/26 03:14:50;;;;;;;72.45;46.25;;;1.00;99.90;;;;;;5013028;28;20028;-75
2021/11/26 03:17:16;;;;;;;75.45;46.85;;;1.00;99.90;;;;;;5014999;28;20093;-74
2021/11/26 03:19:41;;;;;;;67.70;43.92;;;1.10;99.90;;;;;;5000764;28;20056;-75
2021/11/26 03:22:07;;;;;;;69.22;43.55;;;1.10;99.90;;;;;;5000457;28;20049;-75
2021/11/26 03:24:33;;;;;;;81.03;48.08;;;1.10;99.90;;;;;;5029454;28;20044;-74
2021/11/26 03:26:58;;;;;;;61.78;41.25;;;1.20;99.90;;;;;;5012662;28;20018;-74
2021/11/26 03:29:24;;;;;;;73.43;45.80;;;1.10;99.90;;;;;;5016919;28;20036;-74
2021/11/26 03:31:50;;;;;;;70.63;43.78;;;1.00;99.90;;;;;;5035207;28;20026;-74
2021/11/26 03:34:16;;;;;;;70.07;43.25;;;1.00;99.90;;;;;;5005346;28;20257;-74
2021/11/26 03:36:41;;;;;;;78.78;47.22;;;1.10;99.90;;;;;;5028603;28;20040;-75
2021/11/26 03:39:07;;;;;;;79.93;47.90;;;1.00;99.90;;;;;;5016377;28;20057;-75
2021/11/26 03:41:32;;;;;;;63.40;42.28;;;1.00;99.90;;;;;;5033591;28;20499;-76
2021/11/26 03:43:58;;;;;;;80.70;48.55;;;1.00;99.90;;;;;;5043758;28;20029;-75
2021/11/26 03:46:24;;;;;;;81.70;48.70;;;1.00;99.90;;;;;;5028972;28;20719;-75
2021/11/26 03:48:49;;;;;;;91.60;50.10;;;0.90;99.90;;;;;;5026111;28;20056;-75
2021/11/26 03:51:15;;;;;;;84.88;50.55;;;0.80;99.90;;;;;;5011521;28;20078;-74
2021/11/26 03:53:41;;;;;;;98.30;52.08;;;0.80;99.90;;;;;;5025534;28;20526;-74
2021/11/26 03:56:06;;;;;;;72.22;44.67;;;0.70;99.90;;;;;;5015834;28;20026;-74
2021/11/26 03:58:32;;;;;;;78.90;48.13;;;0.80;99.90;;;;;;5008513;28;20018;-75
2021/11/26 04:00:58;;;;;;;80.05;48.28;;;0.90;99.90;;;;;;5011908;28;20026;-76
2021/11/26 04:03:24;;;;;;;91.88;52.20;;;0.80;99.90;;;;;;5008565;28;20025;-75
2021/11/26 04:05:49;;;;;;;73.78;45.67;;;1.20;99.90;;;;;;5020557;28;20464;-76
2021/11/26 04:08:15;;;;;;;82.00;49.47;;;1.00;99.90;;;;;;5022136;28;20021;-75
2021/11/26 04:10:41;;;;;;;80.22;48.58;;;0.90;99.90;;;;;;5009390;28;20022;-76
2021/11/26 04:13:08;;;;;;;73.15;45.92;;;0.90;99.90;;;;;;5007833;28;20107;-76
2021/11/26 04:15:37;;;;;;;72.45;46.28;;;1.00;99.90;;;;;;5020199;28;20023;-75
2021/11/26 04:18:04;;;;;;;70.05;45.33;;;1.10;99.90;;;;;;5021475;28;20029;-75
2021/11/26 04:20:30;;;;;;;93.82;51.95;;;1.10;99.90;;;;;;5009527;28;20113;-76
2021/11/26 04:22:55;;;;;;;72.60;46.55;;;0.90;99.90;;;;;;5029038;28;20148;-74
2021/11/26 04:25:21;;;;;;;76.80;47.60;;;1.00;99.90;;;;;;5019959;28;20040;-75
2021/11/26 04:27:48;;;;;;;78.40;48.50;;;1.00;99.90;;;;;;5021325;28;20030;-75
2021/11/26 04:30:15;;;;;;;74.90;47.47;;;1.10;99.90;;;;;;5026706;28;20052;-76
2021/11/26 04:32:41;;;;;;;82.78;50.05;;;1.10;99.90;;;;;;5026071;28;20025;-74
2021/11/26 04:35:09;;;;;;;83.13;50.28;;;1.10;99.90;;;;;;5032690;28;20541;-73
2021/11/26 04:37:35;;;;;;;86.30;51.70;;;1.10;99.90;;;;;;5015296;28;20045;-73
2021/11/26 04:40:02;;;;;;;73.65;47.50;;;1.00;99.90;;;;;;5020287;28;20123;-74
2021/11/26 04:42:28;;;;;;;76.47;48.47;;;1.00;99.90;;;;;;5020492;28;20373;-74
2021/11/26 04:44:53;;;;;;;79.25;48.55;;;1.10;99.90;;;;;;5026300;28;20029;-74
2021/11/26 04:47:19;;;;;;;73.57;49.05;;;1.00;99.90;;;;;;5008286;28;20034;-74
2021/11/26 04:49:45;;;;;;;90.13;53.20;;;1.00;99.90;;;;;;5019572;28;20026;-74
2021/11/26 04:52:10;;;;;;;84.32;50.67;;;1.00;99.90;;;;;;5032856;28;20030;-74
2021/11/26 04:54:36;;;;;;;71.35;46.53;;;1.10;99.90;;;;;;4996066;28;20108;-75
2021/11/26 04:57:02;;;;;;;74.78;47.38;;;1.10;99.90;;;;;;5007901;28;20112;-75
2021/11/26 04:59:27;;;;;;;77.53;49.50;;;1.10;99.90;;;;;;5002191;28;20033;-75
2021/11/26 05:01:53;;;;;;;76.60;50.63;;;1.00;99.90;;;;;;5020603;28;20025;-74
2021/11/26 05:04:18;;;;;;;80.95;49.95;;;0.90;99.90;;;;;;5008451;28;20069;-74
2021/11/26 05:06:45;;;;;;;85.18;52.88;;;1.00;99.90;;;;;;5024958;28;20021;-73
2021/11/26 05:09:11;;;;;;;82.10;51.22;;;1.00;99.90;;;;;;5003702;28;20044;-73
2021/11/26 05:11:38;;;;;;;79.88;51.70;;;1.00;99.90;;;;;;5002697;28;20025;-74
2021/11/26 05:14:04;;;;;;;78.00;50.50;;;1.00;99.90;;;;;;5008149;28;20420;-74
2021/11/26 05:16:30;;;;;;;92.20;55.47;;;1.10;99.90;;;;;;5025324;28;20021;-75
2021/11/26 05:18:56;;;;;;;95.40;57.53;;;1.00;99.90;;;;;;5001481;28;20041;-74
2021/11/26 05:21:22;;;;;;;99.60;55.92;;;0.90;99.90;;;;;;5020153;28;20029;-75
2021/11/26 05:23:47;;;;;;;92.72;54.50;;;0.80;99.90;;;;;;5031568;28;20403;-74
2021/11/26 05:26:13;;;;;;;88.28;53.00;;;0.80;99.90;;;;;;5020031;28;20033;-75
2021/11/26 05:28:38;;;;;;;88.43;53.17;;;0.80;99.90;;;;;;5007954;28;20034;-75
2021/11/26 05:31:04;;;;;;;85.25;57.08;;;0.70;99.90;;;;;;5024924;28;20024;-75
2021/11/26 05:33:30;;;;;;;97.47;60.35;;;0.90;99.90;;;;;;5001145;28;20108;-74
2021/11/26 05:35:56;;;;;;;100.30;61.55;;;0.90;99.90;;;;;;5019688;28;20062;-75
2021/11/26 05:38:21;;;;;;;86.22;54.85;;;0.90;99.90;;;;;;5025826;28;20026;-74
2021/11/26 05:40:47;;;;;;;96.85;55.72;;;0.90;99.90;;;;;;5006734;28;20018;-74
2021/11/26 05:43:13;;;;;;;90.38;53.10;;;0.70;99.90;;;;;;5001205;28;20095;-74
2021/11/26 05:45:38;;;;;;;93.55;53.38;;;0.70;99.90;;;;;;5019563;28;20022;-74
2021/11/26 05:48:05;;;;;;;95.45;56.35;;;0.80;99.90;;;;;;5007409;28;20025;-74
2021/11/26 05:50:30;;;;;;;87.13;54.67;;;0.90;99.90;;;;;;5024194;28;20034;-74
2021/11/26 05:52:56;;;;;;;78.18;52.83;;;0.90;99.90;;;;;;5013406;28;20392;-75
2021/11/26 05:55:25;;;;;;;81.30;50.17;;;1.10;99.90;;;;;;5023877;28;20033;-75
2021/11/26 05:57:51;;;;;;;72.45;46.90;;;1.10;99.90;;;;;;4995377;28;20116;-76
2021/11/26 06:00:18;;;;;;;87.43;53.30;;;1.10;99.90;;;;;;5024347;28;20476;-75
2021/11/26 06:02:44;;;;;;;95.95;56.28;;;1.00;99.90;;;;;;5000158;28;20079;-75
2021/11/26 06:05:10;;;;;;;85.10;51.42;;;1.00;99.90;;;;;;5018619;28;20065;-75
2021/11/26 06:07:36;;;;;;;91.10;52.78;;;1.00;99.90;;;;;;5018481;28;20029;-75
2021/11/26 06:10:09;;;;;;;79.30;50.40;;;1.00;99.90;;;;;;5018713;28;20033;-75
2021/11/26 06:12:34;;;;;;;87.90;53.55;;;1.10;99.90;;;;;;5001772;28;20053;-75
2021/11/26 06:15:00;;;;;;;80.53;51.28;;;1.10;99.90;;;;;;5018144;28;20096;-75
2021/11/26 06:17:25;;;;;;;91.85;54.72;;;1.00;99.90;;;;;;5006708;28;20312;-74
2021/11/26 06:19:51;;;;;;;87.07;53.58;;;0.90;99.90;;;;;;5025164;28;20030;-74
2021/11/26 06:22:16;;;;;;;88.75;54.17;;;1.00;99.90;;;;;;5001511;28;20029;-75
2021/11/26 06:24:42;;;;;;;94.05;56.17;;;1.10;99.90;;;;;;5031133;28;20098;-75
2021/11/26 06:27:09;;;;;;;93.90;55.75;;;1.00;99.90;;;;;;5018733;28;20053;-75
2021/11/26 06:29:34;;;;;;;107.20;59.08;;;1.10;99.90;;;;;;5000567;28;20050;-76
2021/11/26 06:32:00;;;;;;;120.97;61.47;;;1.00;99.90;;;;;;5007409;28;20480;-76
2021/11/26 06:34:25;;;;;;;117.78;62.40;;;1.00;99.90;;;;;;5008309;28;20029;-76
2021/11/26 06:36:52;;;;;;;118.60;60.03;;;0.90;99.90;;;;;;5018063;28;20065;-76
2021/11/26 06:39:18;;;;;;;120.88;65.30;;;0.80;99.90;;;;;;5000656;28;20062;-75
2021/11/26 06:41:43;;;;;;;114.43;69.53;;;0.80;99.90;;;;;;5007254;28;20069;-76
2021/11/26 06:44:09;;;;;;;116.70;68.13;;;0.90;99.90;;;;;;5007102;28;20452;-76
2021/11/26 06:46:35;;;;;;;108.88;63.85;;;0.90;99.90;;;;;;5018044;28;20033;-76
2021/11/26 06:49:00;;;;;;;108.80;62.40;;;0.90;99.90;;;;;;5018485;28;20030;-76
2021/11/26 06:51:26;;;;;;;142.73;71.63;;;1.00;99.90;;;;;;5007182;28;20026;-75
2021/11/26 06:53:53;;;;;;;117.22;67.65;;;1.00;99.90;;;;;;5006574;28;20129;-76
2021/11/26 06:56:19;;;;;;;151.70;72.32;;;0.90;99.90;;;;;;5017997;28;20077;-75
2021/11/26 06:58:44;;;;;;;145.75;71.95;;;1.00;99.90;;;;;;5036939;28;20128;-76
2021/11/26 07:01:12;;;;;;;123.60;70.43;;;1.00;99.90;;;;;;5021077;28;20017;-75
2021/11/26 07:03:37;;;;;;;135.10;69.03;;;1.00;99.90;;;;;;5021745;28;20117;-76
2021/11/26 07:06:03;;;;;;;120.05;67.50;;;0.90;99.90;;;;;;5003827;28;20503;-76
2021/11/26 07:08:28;;;;;;;131.23;68.32;;;0.90;99.90;;;;;;5021822;28;20034;-75
2021/11/26 07:10:54;;;;;;;122.75;66.20;;;1.00;99.90;;;;;;5028495;28;20025;-75
2021/11/26 07:13:20;;;;;;;110.88;60.10;;;1.00;99.90;;;;;;5027722;28;20467;-75
2021/11/26 07:15:47;;;;;;;114.68;65.78;;;1.00;99.90;;;;;;5021472;28;20555;-73
2021/11/26 07:18:12;;;;;;;173.68;84.63;;;1.00;99.90;;;;;;5004455;28;20022;-74
2021/11/26 07:20:40;;;;;;;198.35;97.30;;;0.90;99.90;;;;;;5010420;28;20113;-75
2021/11/26 07:23:06;;;;;;;166.18;81.90;;;0.90;99.90;;;;;;5010408;28;20025;-74
2021/11/26 07:25:32;;;;;;;172.43;77.57;;;0.90;99.90;;;;;;5003726;28;20471;-74
2021/11/26 07:27:58;;;;;;;156.30;82.50;;;0.90;99.90;;;;;;5021254;28;20029;-75
2021/11/26 07:30:24;;;;;;;154.18;76.70;;;0.90;99.90;;;;;;5027575;28;20026;-75
2021/11/26 07:32:49;;;;;;;180.20;81.50;;;1.00;99.90;;;;;;5020974;28;20058;-74
2021/11/26 07:35:15;;;;;;;138.05;71.43;;;0.90;99.90;;;;;;5016108;28;20100;-75
2021/11/26 07:37:42;;;;;;;103.10;60.53;;;0.90;99.90;;;;;;5003551;28;20037;-74
2021/11/26 07:40:11;;;;;;;166.48;75.05;;;1.00;99.90;;;;;;5005379;28;20080;-75
2021/11/26 07:42:38;;;;;;;123.55;67.18;;;0.90;99.90;;;;;;5028238;28;20021;-78
2021/11/26 07:45:05;;;;;;;118.78;66.50;;;1.00;99.90;;;;;;5011165;28;20456;-72
2021/11/26 07:47:31;;;;;;;153.70;71.47;;;1.10;99.90;;;;;;5028272;28;20026;-74
2021/11/26 07:49:56;;;;;;;145.80;68.72;;;1.00;99.90;;;;;;5026936;28;20369;-75
2021/11/26 07:52:22;;;;;;;131.48;65.30;;;1.00;99.90;;;;;;5015428;28;20029;-75
2021/11/26 07:54:48;;;;;;;100.72;58.60;;;1.10;99.90;;;;;;5026678;28;20101;-75
2021/11/26 07:57:13;;;;;;;154.80;73.18;;;1.10;99.90;;;;;;5027654;28;20021;-76
2021/11/26 07:59:39;;;;;;;107.18;60.20;;;1.20;99.90;;;;;;5021096;28;20510;-74
2021/11/26 08:02:05;;;;;;;115.05;62.08;;;1.20;99.90;;;;;;5002918;28;20438;-76
2021/11/26 08:04:31;;;;;;;135.88;68.18;;;1.10;99.90;;;;;;5033735;28;20028;-76
2021/11/26 08:06:57;;;;;;;115.50;65.93;;;1.10;99.90;;;;;;5002958;28;20034;-75
2021/11/26 08:09:23;;;;;;;118.07;64.10;;;1.20;99.90;;;;;;5027080;28;20049;-75
2021/11/26 08:11:50;;;;;;;134.50;66.15;;;1.10;99.90;;;;;;5026646;28;20082;-75
2021/11/26 08:14:17;;;;;;;112.90;65.35;;;1.20;99.90;;;;;;5002663;28;20030;-75
2021/11/26 08:16:42;;;;;;;128.77;67.95;;;1.20;99.90;;;;;;5020455;28;20022;-75
2021/11/26 08:19:09;;;;;;;110.25;67.25;;;1.30;99.90;;;;;;5009317;28;20113;-74
2021/11/26 08:21:35;;;;;;;123.00;68.20;;;1.30;99.90;;;;;;5009118;28;20059;-74
2021/11/26 08:24:02;;;;;;;119.32;66.43;;;1.40;99.90;;;;;;5009244;28;20488;-75
2021/11/26 08:26:28;;;;;;;150.20;80.18;;;1.40;99.90;;;;;;5026626;28;20045;-75
2021/11/26 08:28:54;;;;;;;114.88;65.78;;;1.40;99.90;;;;;;5020305;28;20052;-75
2021/11/26 08:31:19;;;;;;;121.63;66.68;;;1.40;99.90;;;;;;5002314;28;20488;-75
2021/11/26 08:33:45;;;;;;;98.13;59.10;;;1.40;99.90;;;;;;5008989;28;20076;-74
2021/11/26 08:36:11;;;;;;;111.00;62.33;;;1.40;99.90;;;;;;5014199;28;20045;-74
2021/11/26 08:38:36;;;;;;;110.63;64.30;;;1.40;99.90;;;;;;5025635;28;20052;-75
2021/11/26 08:41:02;;;;;;;109.05;63.80;;;1.50;99.90;;;;;;5009009;28;20404;-75
2021/11/26 08:43:28;;;;;;;112.90;63.38;;;1.50;99.90;;;;;;5020949;28;20030;-74
2021/11/26 08:45:53;;;;;;;110.75;62.65;;;1.50;99.90;;;;;;5002291;28;20038;-75
2021/11/26 08:48:19;;;;;;;93.50;56.10;;;1.50;99.90;;;;;;5025301;28;20056;-75
2021/11/26 08:50:45;;;;;;;112.93;63.50;;;1.50;99.90;;;;;;5026510;28;20053;-75
2021/11/26 08:53:11;;;;;;;99.40;57.78;;;1.50;99.90;;;;;;5003581;28;20109;-75
2021/11/26 08:55:39;;;;;;;93.97;55.67;;;1.50;99.90;;;;;;5019461;28;20105;-75
2021/11/26 08:58:06;;;;;;;102.65;57.75;;;1.50;99.90;;;;;;5006850;28;20030;-75
2021/11/26 09:00:35;;;;;;;89.38;52.28;;;1.50;99.90;;;;;;5010397;28;20029;-74
2021/11/26 09:03:03;;;;;;;108.43;59.30;;;1.50;99.90;;;;;;5026995;28;20080;-74
2021/11/26 09:05:28;;;;;;;100.25;57.33;;;1.60;99.90;;;;;;5026835;28;20021;-74
2021/11/26 09:08:02;;;;;;;101.78;57.85;;;1.50;99.90;;;;;;5022032;28;20056;-75
2021/11/26 09:10:30;;;;;;;110.53;58.92;;;1.50;99.90;;;;;;5019338;28;20021;-75
2021/11/26 09:12:56;;;;;;;100.95;56.60;;;1.50;99.90;;;;;;5022448;28;20025;-74
2021/11/26 09:15:23;;;;;;;102.57;57.00;;;1.60;99.90;;;;;;5025913;28;20022;-75
2021/11/26 09:17:49;;;;;;;95.47;53.70;;;1.60;99.90;;;;;;5005632;28;20492;-75
2021/11/26 09:20:15;;;;;;;82.00;50.25;;;1.60;99.90;;;;;;5019212;28;20033;-74
2021/11/26 09:22:41;;;;;;;93.40;52.90;;;1.60;99.90;;;;;;5003315;28;20025;-75
2021/11/26 09:25:07;;;;;;;85.15;52.10;;;1.80;99.90;;;;;;5007859;28;20034;-74
2021/11/26 09:27:33;;;;;;;98.00;54.33;;;1.70;99.90;;;;;;5023371;28;20025;-74
2021/11/26 09:29:59;;;;;;;90.80;52.53;;;1.80;99.90;;;;;;5018981;28;20029;-75
2021/11/26 09:32:25;;;;;;;81.18;50.10;;;1.80;99.90;;;;;;5021278;28;20026;-74
2021/11/26 09:34:52;;;;;;;83.93;51.55;;;1.90;99.90;;;;;;5028720;28;20096;-74
2021/11/26 09:37:18;;;;;;;79.53;51.67;;;2.00;99.90;;;;;;5014546;28;20034;-74
2021/11/26 09:39:44;;;;;;;82.05;53.60;;;2.10;99.90;;;;;;5028834;28;20060;-75
2021/11/26 09:42:10;;;;;;;78.88;48.72;;;2.10;99.90;;;;;;5022502;28;20025;-74
2021/11/26 09:44:39;;;;;;;75.45;47.72;;;2.00;99.90;;;;;;5018558;28;20062;-73
2021/11/26 09:47:05;;;;;;;76.07;47.53;;;2.10;99.90;;;;;;5021608;28;20065;-75
2021/11/26 09:49:31;;;;;;;78.47;48.33;;;2.10;99.90;;;;;;5007932;28;20030;-74
2021/11/26 09:51:57;;;;;;;75.93;47.22;;;2.10;99.90;;;;;;5022763;28;20020;-74
2021/11/26 09:54:23;;;;;;;78.57;48.65;;;2.00;99.90;;;;;;5000830;28;20021;-74
2021/11/26 09:56:49;;;;;;;66.57;43.35;;;2.00;99.90;;;;;;5031945;28;20112;-74
2021/11/26 09:59:14;;;;;;;64.20;42.58;;;2.10;99.90;;;;;;5018622;28;20036;-75
2021/11/26 10:01:40;;;;;;;60.13;41.00;;;2.10;99.90;;;;;;5021517;28;20399;-74
2021/11/26 10:04:15;;;;;;;66.25;43.10;;;2.20;99.90;;;;;;5025094;28;20022;-74
2021/11/26 10:06:41;;;;;;;65.93;43.40;;;2.20;99.90;;;;;;5005867;28;20104;-74
2021/11/26 10:09:13;;;;;;;66.55;42.03;;;2.30;99.90;;;;;;5018355;28;20125;-77
2021/11/26 10:11:57;;;;;;;61.33;40.47;;;2.40;99.90;;;;;;5019415;28;20495;-73
2021/11/26 10:14:24;;;;;;;61.30;41.38;;;2.10;99.90;;;;;;5002428;28;20022;-75
2021/11/26 10:17:02;;;;;;;74.10;50.65;;;2.10;99.90;;;;;;5018571;28;20026;-76
2021/11/26 10:19:34;;;;;;;64.22;41.95;;;2.20;99.90;;;;;;5021387;28;20033;-75
2021/11/26 10:22:10;;;;;;;62.05;41.05;;;2.30;99.90;;;;;;5025409;28;20030;-77
2021/11/26 10:24:36;;;;;;;62.50;42.10;;;2.30;99.90;;;;;;5011693;28;20030;-75
2021/11/26 10:27:02;;;;;;;57.58;40.90;;;2.50;99.90;;;;;;5025215;28;20499;-75
2021/11/26 10:29:31;;;;;;;58.88;39.45;;;2.70;99.90;;;;;;5006716;28;20124;-75
2021/11/26 10:32:12;;;;;;;59.28;40.97;;;2.70;99.90;;;;;;5022600;28;20018;-75
2021/11/26 10:34:40;;;;;;;67.45;42.60;;;2.60;99.90;;;;;;5028469;28;20097;-75
2021/11/26 10:37:22;;;;;;;63.00;41.35;;;2.70;99.90;;;;;;5026790;28;20026;-75
2021/11/26 10:39:48;;;;;;;58.25;38.35;;;2.70;99.90;;;;;;5028860;28;20029;-74
2021/11/26 10:42:24;;;;;;;62.53;38.72;;;2.60;99.90;;;;;;5026339;28;20037;-76
2021/11/26 10:45:04;;;;;;;57.10;38.08;;;2.60;99.90;;;;;;5021850;28;20021;-75
2021/11/26 10:47:47;;;;;;;53.78;37.60;;;2.60;99.90;;;;;;5022013;28;20096;-75
2021/11/26 10:50:44;;;;;;;53.47;37.30;;;2.40;99.90;;;;;;5008372;28;20037;-75
2021/11/26 11:00:46;;;;;;;54.58;38.05;;;2.70;99.90;;;;;;5022052;28;20025;-76
2021/11/26 11:03:14;;;;;;;55.30;37.42;;;2.70;99.90;;;;;;5025408;28;20108;-75
2021/11/26 11:05:40;;;;;;;57.53;38.60;;;2.90;99.90;;;;;;5028057;28;20026;-74
2021/11/26 11:08:22;;;;;;;54.10;37.58;;;3.10;99.90;;;;;;5007437;28;20044;-76
2021/11/26 11:10:48;;;;;;;53.70;35.88;;;2.90;99.90;;;;;;5021524;28;20121;-75
2021/11/26 11:13:19;;;;;;;46.10;33.40;;;3.00;99.90;;;;;;5005214;28;20392;-75
2021/11/26 11:15:47;;;;;;;48.97;35.55;;;3.10;99.90;;;;;;5027947;28;20022;-75
2021/11/26 11:18:14;;;;;;;48.58;34.88;;;3.20;99.90;;;;;;5025287;28;20025;-75
2021/11/26 11:20:41;;;;;;;45.35;32.90;;;3.30;99.90;;;;;;5028014;28;20025;-75
2021/11/26 11:23:07;;;;;;;49.58;33.03;;;3.20;99.90;;;;;;5010421;28;20025;-75
2021/11/26 11:25:36;;;;;;;45.72;31.77;;;3.20;99.90;;;;;;5021183;28;20037;-75
2021/11/26 11:28:05;;;;;;;43.90;32.30;;;2.90;99.90;;;;;;5024887;28;20657;-75
2021/11/26 11:30:31;;;;;;;44.58;31.08;;;2.80;99.90;;;;;;5027133;28;20103;-76
2021/11/26 11:32:57;;;;;;;43.08;30.60;;;2.90;99.90;;;;;;5027957;28;20487;-75
2021/11/26 11:35:26;;;;;;;43.85;31.05;;;3.00;99.90;;;;;;5014330;28;20034;-75
2021/11/26 11:37:53;;;;;;;51.83;34.65;;;3.00;99.90;;;;;;5015808;28;20033;-74
2021/11/26 11:40:26;;;;;;;45.03;31.80;;;3.10;99.90;;;;;;5008629;28;20157;-74
2021/11/26 11:42:52;;;;;;;48.33;32.92;;;3.10;99.90;;;;;;5009966;28;20022;-75
2021/11/26 11:45:23;;;;;;;40.92;30.00;;;3.20;99.90;;;;;;5023637;28;20025;-75
2021/11/26 11:47:53;;;;;;;43.25;30.63;;;3.10;99.90;;;;;;5037417;28;20040;-74
2021/11/26 11:50:26;;;;;;;42.25;30.30;;;3.00;99.90;;;;;;5024551;28;20148;-74
2021/11/26 11:52:58;;;;;;;41.72;31.92;;;2.90;99.90;;;;;;5009853;28;20028;-76
2021/11/26 11:55:25;;;;;;;47.38;34.83;;;3.00;99.90;;;;;;5014007;28;20014;-75
2021/11/26 11:57:56;;;;;;;48.95;35.47;;;3.10;99.90;;;;;;5009720;28;20022;-75
2021/11/26 12:00:22;;;;;;;56.28;43.20;;;3.00;99.90;;;;;;5026906;28;20076;-75
2021/11/26 12:02:50;;;;;;;56.75;42.17;;;3.00;99.90;;;;;;5020706;28;20052;-75
2021/11/26 12:05:25;;;;;;;48.95;33.95;;;3.10;99.90;;;;;;5020633;28;20049;-74
2021/11/26 12:08:05;;;;;;;43.63;29.85;;;3.10;99.90;;;;;;5026269;28;20466;-75
2021/11/26 12:10:45;;;;;;;42.90;30.15;;;3.00;99.90;;;;;;5002601;28;20684;-74
2021/11/26 12:13:21;;;;;;;44.22;30.83;;;2.90;99.90;;;;;;5024646;28;20026;-75
2021/11/26 12:15:47;;;;;;;40.50;29.98;;;3.10;99.90;;;;;;5002527;28;20112;-75
2021/11/26 12:18:13;;;;;;;41.40;29.92;;;3.00;99.90;;;;;;5020979;28;20525;-75
2021/11/26 12:20:39;;;;;;;45.38;30.35;;;2.90;99.90;;;;;;5026988;28;20112;-75
2021/11/26 12:23:24;;;;;;;41.22;29.40;;;3.00;99.90;;;;;;5009256;28;20442;-72
2021/11/26 12:28:53;;;;;;;47.00;33.13;;;2.80;99.90;;;;;;5020133;28;20029;-74
2021/11/26 12:31:29;;;;;;;43.83;30.77;;;2.90;99.90;;;;;;5019841;28;20480;-75
2021/11/26 12:34:02;;;;;;;;;;;2.80;99.90;;;;;;5004631;28;20028;-74
2021/11/26 12:36:45;;;;;;;48.58;31.27;;;2.90;99.90;;;;;;5048593;28;19955;-76
2021/11/26 12:39:19;;;;;;;48.00;32.13;;;3.00;99.90;;;;;;5021175;28;20022;-74
2021/11/26 12:41:46;;;;;;;51.05;34.70;;;3.10;99.90;;;;;;5026801;28;20022;-75
2021/11/26 12:44:42;;;;;;;43.90;30.65;;;3.20;99.90;;;;;;5026323;28;20033;-75
2021/11/26 12:47:13;;;;;;;41.30;29.67;;;3.00;99.90;;;;;;5011154;28;20038;-74